Time,TemperatureF,DewpointF,PressureIn,WindDirection,WindDirectionDegrees,WindSpeedMPH,WindSpeedGustMPH,Humidity,HourlyPrecipIn,Conditions,Clouds,dailyrainin,SoftwareType,DateUTC
2013-02-14 07:06:00,28.9,22.3,29.71,SSW,202,0.0,0.0,76,99.99,,SKC,0.00,VWS V14.01,2013-02-14 12:06:00,
2013-02-14 07:11:00,28.9,22.3,29.71,SSW,202,0.0,0.0,76,0.00,,SKC,0.00,VWS V14.01,2013-02-14 12:11:00,
2013-02-14 07:16:00,29.1,22.5,29.70,South,180,0.0,0.0,76,0.00,,SKC,0.00,VWS V14.01,2013-02-14 12:16:00,
2013-02-14 07:21:00,29.1,22.5,29.71,SSW,202,1.5,1.5,76,0.00,,SKC,0.00,VWS V14.01,2013-02-14 12:21:00,
2013-02-14 07:26:00,29.3,22.7,29.71,SSW,202,0.0,1.5,76,0.00,,SKC,0.00,VWS V14.01,2013-02-14 12:26:00,
2013-02-14 07:31:00,29.3,22.7,29.71,SW,225,0.0,0.0,76,0.00,,SKC,0.00,VWS V14.01,2013-02-14 12:31:00,
2013-02-14 07:36:00,29.3,22.7,29.70,SSW,202,0.0,0.0,76,0.00,,SKC,0.00,VWS V14.01,2013-02-14 12:36:00,
2013-02-14 07:41:00,29.3,22.7,29.70,SSW,202,0.6,0.6,76,0.00,,SKC,0.00,VWS V14.01,2013-02-14 12:41:00,
2013-02-14 07:46:00,29.4,22.8,29.70,SSW,202,1.3,1.3,76,0.00,,SKC,0.00,VWS V14.01,2013-02-14 12:46:00,
2013-02-14 07:51:00,29.6,23.0,29.71,SSE,158,0.0,1.3,76,0.00,,SKC,0.00,VWS V14.01,2013-02-14 12:51:00,
2013-02-14 07:56:00,29.4,22.8,29.70,SSW,202,0.4,2.2,76,0.00,,SKC,0.00,VWS V14.01,2013-02-14 12:56:00,
2013-02-14 08:01:00,29.6,23.0,29.71,South,180,0.8,1.1,76,0.00,,SKC,0.00,VWS V14.01,2013-02-14 13:01:00,
2013-02-14 08:06:00,29.6,23.3,29.71,SSW,202,1.3,1.3,77,0.00,,SKC,0.00,VWS V14.01,2013-02-14 13:06:00,
2013-02-14 08:11:00,29.8,23.5,29.71,SSW,202,1.3,1.3,77,0.00,,SKC,0.00,VWS V14.01,2013-02-14 13:11:00,
2013-02-14 08:16:00,30.0,23.7,29.71,SSW,202,1.3,1.3,77,0.00,,SKC,0.00,VWS V14.01,2013-02-14 13:16:00,
2013-02-14 08:21:00,30.3,24.0,29.71,SSW,202,0.0,1.3,77,0.00,,SKC,0.00,VWS V14.01,2013-02-14 13:21:00,
2013-02-14 08:26:00,30.5,24.2,29.71,SSW,202,0.6,1.3,77,0.00,,SKC,0.00,VWS V14.01,2013-02-14 13:26:00,
2013-02-14 08:31:00,30.9,24.5,29.71,SSW,202,0.0,2.6,77,0.00,,SKC,0.00,VWS V14.01,2013-02-14 13:31:00,
2013-02-14 08:36:00,30.9,24.5,29.71,South,180,0.0,2.6,77,0.00,,SKC,0.00,VWS V14.01,2013-02-14 13:36:00,
2013-02-14 08:41:00,31.1,24.8,29.71,SSW,202,0.0,2.6,77,0.00,,SKC,0.00,VWS V14.01,2013-02-14 13:41:00,
2013-02-14 08:46:00,31.4,25.0,29.71,SW,225,0.0,0.6,77,0.00,,SKC,0.00,VWS V14.01,2013-02-14 13:46:00,
2013-02-14 08:51:00,31.6,25.2,29.71,SSW,202,0.4,0.6,77,0.00,,SKC,0.00,VWS V14.01,2013-02-14 13:51:00,
2013-02-14 08:56:00,32.0,25.6,29.71,SSW,202,0.8,0.8,77,0.00,,SKC,0.00,VWS V14.01,2013-02-14 13:56:00,
2013-02-14 09:02:00,32.1,25.7,29.71,SW,225,2.4,2.4,77,0.00,,SKC,0.00,VWS V14.01,2013-02-14 14:02:00,
2013-02-14 09:07:00,32.3,25.9,29.71,South,180,0.8,2.4,77,0.00,,SKC,0.00,VWS V14.01,2013-02-14 14:07:00,
2013-02-14 09:12:00,32.3,25.9,29.71,South,180,0.0,2.4,77,0.00,,SKC,0.00,VWS V14.01,2013-02-14 14:12:00,
2013-02-14 09:17:00,32.5,25.8,29.71,SSW,202,3.1,3.1,76,0.00,,SKC,0.00,VWS V14.01,2013-02-14 14:17:00,
2013-02-14 09:22:00,32.7,26.0,29.71,South,180,0.0,3.1,76,0.00,,SKC,0.00,VWS V14.01,2013-02-14 14:22:00,
2013-02-14 09:27:00,32.9,26.2,29.71,South,180,2.9,3.1,76,0.00,,SKC,0.00,VWS V14.01,2013-02-14 14:27:00,
2013-02-14 09:32:00,33.2,26.5,29.71,SSW,202,0.8,1.3,76,0.00,,SKC,0.00,VWS V14.01,2013-02-14 14:32:00,
2013-02-14 09:37:00,33.4,26.7,29.71,SW,225,4.0,4.0,76,0.00,,SKC,0.00,VWS V14.01,2013-02-14 14:37:00,
2013-02-14 09:42:00,33.8,27.0,29.71,SSW,202,0.0,4.0,76,0.00,,SKC,0.00,VWS V14.01,2013-02-14 14:42:00,
2013-02-14 09:47:00,33.9,27.1,29.71,SSW,202,2.2,2.2,76,0.00,,SKC,0.00,VWS V14.01,2013-02-14 14:47:00,
2013-02-14 09:52:00,34.1,27.3,29.71,SW,225,3.5,3.5,76,0.00,,SKC,0.00,VWS V14.01,2013-02-14 14:52:00,
2013-02-14 09:57:00,34.3,27.2,29.71,SSW,202,6.0,6.0,75,0.00,,SKC,0.00,VWS V14.01,2013-02-14 14:57:00,
2013-02-14 10:02:00,34.1,27.0,29.71,South,180,5.3,5.3,75,0.00,,SKC,0.00,VWS V14.01,2013-02-14 15:02:00,
2013-02-14 10:07:00,34.3,27.2,29.71,SSW,202,2.9,5.3,75,0.00,,SKC,0.00,VWS V14.01,2013-02-14 15:07:00,
2013-02-14 10:12:00,34.5,27.1,29.70,SSW,202,0.8,5.3,74,0.00,,SKC,0.00,VWS V14.01,2013-02-14 15:12:00,
2013-02-14 10:17:00,34.7,27.3,29.70,SSW,202,5.8,7.6,74,0.00,,SKC,0.00,VWS V14.01,2013-02-14 15:17:00,
2013-02-14 10:22:00,34.8,27.4,29.70,South,180,6.7,7.6,74,0.00,,SKC,0.00,VWS V14.01,2013-02-14 15:22:00,
2013-02-14 10:27:00,34.8,27.4,29.69,SSW,202,5.5,7.6,74,0.00,,SKC,0.00,VWS V14.01,2013-02-14 15:27:00,
2013-02-14 10:45:00,34.8,27.0,29.69,South,180,0.0,3.5,73,0.00,,SKC,0.00,VWS V14.01,2013-02-14 15:45:00,
2013-02-14 11:00:00,35.0,27.6,29.68,SSW,202,2.2,6.0,74,0.00,,SKC,0.00,VWS V14.01,2013-02-14 16:00:00,
2013-02-14 11:30:00,35.7,28.6,29.67,SW,225,4.0,8.0,75,0.00,,SKC,0.00,VWS V14.01,2013-02-14 16:30:00,
2013-02-14 11:45:00,36.3,29.1,29.66,South,180,2.0,6.4,75,0.00,,SKC,0.00,VWS V14.01,2013-02-14 16:45:00,
2013-02-14 12:00:00,36.8,29.6,29.66,SSW,202,5.5,8.2,75,0.00,,SKC,0.00,VWS V14.01,2013-02-14 17:00:00,
2013-02-14 12:15:00,36.8,29.3,29.66,South,180,6.0,6.0,74,0.00,,SKC,0.00,VWS V14.01,2013-02-14 17:15:00,
2013-02-14 12:30:00,36.8,29.3,29.65,South,180,5.3,6.9,74,0.00,,SKC,0.00,VWS V14.01,2013-02-14 17:30:00,
2013-02-14 12:45:00,37.0,29.2,29.65,SSW,202,6.0,9.6,73,0.00,,SKC,0.00,VWS V14.01,2013-02-14 17:45:00,
2013-02-14 13:00:00,37.0,29.2,29.65,WNW,292,3.5,8.7,73,0.00,,SKC,0.00,VWS V14.01,2013-02-14 18:00:00,
2013-02-14 13:15:00,37.0,28.8,29.65,SW,225,5.8,5.8,72,0.00,,SKC,0.00,VWS V14.01,2013-02-14 18:15:00,
2013-02-14 13:30:00,37.0,28.8,29.65,WSW,248,3.1,5.8,72,0.00,,SKC,0.00,VWS V14.01,2013-02-14 18:30:00,
2013-02-14 13:45:00,37.2,29.0,29.65,South,180,4.0,5.3,72,0.00,,SKC,0.00,VWS V14.01,2013-02-14 18:45:00,
2013-02-14 14:00:00,37.0,28.8,29.64,SSW,202,2.4,6.2,72,0.00,,SKC,0.00,VWS V14.01,2013-02-14 19:00:00,
2013-02-14 14:15:00,37.0,28.8,29.63,SSW,202,4.2,4.2,72,0.00,,SKC,0.00,VWS V14.01,2013-02-14 19:15:00,
2013-02-14 14:30:00,37.4,29.2,29.63,WSW,248,3.8,7.3,72,0.00,,SKC,0.00,VWS V14.01,2013-02-14 19:30:00,
2013-02-14 15:00:00,37.5,29.3,29.63,SW,225,1.7,5.5,72,0.00,,SKC,0.00,VWS V14.01,2013-02-14 20:00:00,
2013-02-14 15:15:00,37.7,29.5,29.63,South,180,3.5,3.5,72,0.00,,SKC,0.00,VWS V14.01,2013-02-14 20:15:00,
2013-02-14 15:45:00,37.7,29.2,29.63,SW,225,0.6,4.6,71,0.00,,SKC,0.00,VWS V14.01,2013-02-14 20:45:00,
2013-02-14 16:00:00,37.7,29.5,29.63,WSW,248,0.6,2.2,72,0.00,,SKC,0.00,VWS V14.01,2013-02-14 21:00:00,
2013-02-14 16:15:00,37.5,29.3,29.63,South,180,1.7,5.5,72,0.00,,SKC,0.00,VWS V14.01,2013-02-14 21:15:00,
2013-02-14 16:30:00,37.7,29.5,29.63,WSW,248,0.0,4.4,72,0.00,,SKC,0.00,VWS V14.01,2013-02-14 21:30:00,
2013-02-14 16:45:00,37.9,29.7,29.63,West,270,0.0,3.1,72,0.00,,SKC,0.00,VWS V14.01,2013-02-14 21:45:00,
2013-02-14 17:00:00,37.7,29.5,29.63,WNW,292,1.3,4.4,72,0.00,,SKC,0.00,VWS V14.01,2013-02-14 22:00:00,
2013-02-14 17:15:00,37.7,29.2,29.64,WNW,292,0.0,1.5,71,0.00,,SKC,0.00,VWS V14.01,2013-02-14 22:15:00,
2013-02-14 17:30:00,37.2,28.3,29.65,NNW,338,7.8,7.8,70,0.00,,SKC,0.00,VWS V14.01,2013-02-14 22:30:00,
2013-02-14 17:45:00,36.6,27.4,29.65,NW,315,9.6,9.6,69,0.00,,SKC,0.00,VWS V14.01,2013-02-14 22:45:00,
2013-02-14 18:00:00,35.7,25.8,29.66,WSW,248,2.6,9.8,67,0.00,,SKC,0.00,VWS V14.01,2013-02-14 23:00:00,
2013-02-14 18:45:00,35.7,25.5,29.68,West,270,0.0,6.9,66,0.00,,SKC,0.00,VWS V14.01,2013-02-14 23:45:00,
2013-02-14 19:00:00,35.9,25.7,29.69,NNW,338,0.0,3.5,66,0.00,,SKC,0.00,VWS V14.01,2013-02-15 00:00:00,
2013-02-14 19:15:00,36.1,25.5,29.69,West,270,0.6,4.2,65,0.00,,SKC,0.00,VWS V14.01,2013-02-15 00:15:00,
2013-02-14 19:30:00,36.1,25.5,29.70,WNW,292,0.0,5.1,65,0.00,,SKC,0.00,VWS V14.01,2013-02-15 00:30:00,
2013-02-14 19:45:00,36.1,25.5,29.71,West,270,2.0,4.6,65,0.00,,SKC,0.00,VWS V14.01,2013-02-15 00:45:00,
2013-02-14 20:00:00,36.1,25.1,29.70,WNW,292,2.9,11.1,64,0.00,,SKC,0.00,VWS V14.01,2013-02-15 01:00:00,
2013-02-14 20:15:00,35.9,25.3,29.72,WSW,248,2.9,13.1,65,0.00,,SKC,0.00,VWS V14.01,2013-02-15 01:15:00,
2013-02-14 20:30:00,35.4,24.1,29.72,West,270,5.3,5.8,63,0.00,,SKC,0.00,VWS V14.01,2013-02-15 01:30:00,
2013-02-14 20:45:00,35.0,23.7,29.72,West,270,5.3,10.5,63,0.00,,SKC,0.00,VWS V14.01,2013-02-15 01:45:00,
2013-02-14 21:00:00,34.8,23.5,29.73,NW,315,2.6,19.4,63,0.00,,SKC,0.00,VWS V14.01,2013-02-15 02:00:00,
2013-02-14 21:15:00,34.3,23.0,29.73,WSW,248,5.1,10.2,63,0.00,,SKC,0.00,VWS V14.01,2013-02-15 02:15:00,
2013-02-14 21:30:00,34.1,22.8,29.74,West,270,2.9,9.6,63,0.00,,SKC,0.00,VWS V14.01,2013-02-15 02:30:00,
2013-02-14 21:45:00,34.1,22.8,29.74,West,270,2.2,9.1,63,0.00,,SKC,0.00,VWS V14.01,2013-02-15 02:45:00,
2013-02-14 22:00:00,33.9,22.6,29.75,West,270,4.0,6.2,63,0.00,,SKC,0.00,VWS V14.01,2013-02-15 03:00:00,
2013-02-14 22:15:00,33.9,22.6,29.75,NW,315,2.9,9.3,63,0.00,,SKC,0.00,VWS V14.01,2013-02-15 03:15:00,
2013-02-14 22:30:00,33.9,22.6,29.75,NW,315,4.9,12.7,63,0.00,,SKC,0.00,VWS V14.01,2013-02-15 03:30:00,
2013-02-14 22:45:00,33.9,22.6,29.76,WSW,248,2.0,12.3,63,0.00,,SKC,0.00,VWS V14.01,2013-02-15 03:45:00,
2013-02-14 23:00:00,33.9,22.6,29.76,NNW,338,5.8,14.5,63,0.00,,SKC,0.00,VWS V14.01,2013-02-15 04:00:00,
2013-02-14 23:15:00,33.6,22.4,29.77,NW,315,8.7,12.0,63,0.00,,SKC,0.00,VWS V14.01,2013-02-15 04:15:00,
2013-02-14 23:30:00,33.4,22.2,29.78,WNW,292,4.4,9.6,63,0.00,,SKC,0.00,VWS V14.01,2013-02-15 04:30:00,
2013-02-14 23:45:00,33.4,22.2,29.78,NW,315,5.8,10.0,63,0.00,,SKC,0.00,VWS V14.01,2013-02-15 04:45:00,